Hovedside
METAR-TAF:

METAR-TAF

Lufthavner :

Haugesund, Norge

Haugesund lufthavn

breddegrad: 59-21N, lengdegrad: 005-13E, høyde over havet: 2 m

Gjeldene værobservasjon

Denne rapporten ble laget for 37 minutter siden, klokken 18:20 UTC
Vind 10 kt fra Sørøst
Temperatur 13°C
Luftfuktighet 82%
Trykk 1021 hPa
Sikt 10 km eller mer
Spredte skyer i en høyde av 3900 ft
Brutte skyer i en høyde av 6600 ft
lett duskregn

METAR: ENHD 221820Z 13010KT 9999 -DZ SCT039 BKN066 13/10 Q1021

Tid: 20:57 (18:57 UTC)

Varsel

Denne rapporten ble laget for 1 time og 57 minutter siden, klokken 17:00 UTC
Varsel gyldig fra 22. klokken 18 UTC til 22. klokken 21 UTC
Vind 8 kt fra Sørøst
Sikt 10 km eller mer
Brutte skyer i en høyde av 4000 ft

TAF: ENHD 221700Z 2218/2221 13008KT 9999 BKN040

Værobservasjoner og værvarsel for over 4000 flyplasser (METAR- og TAF-rapporter).

Tilgjengelige stasjoner er representert av de røde og gule prikkene på kartet.

Hold musepekeren over prikken for å se navnet på stasjonen.

Klikk så for å se værobservasjoner og -varsler.

For å forandre kartet kan du klikke på den grønne knappen med svart kryss for å zoome inn, på den grønne knappen med strek for å zoome ut, eller på de grønne pilene for å se tilstøtende kart.


METAR-TAF: